Time;durP1;ratioP1;P1;durP2;ratioP2;P2;SDS_P1;SDS_P2;PMS_P1;PMS_P2;Temp;Humidity;BMP_temperature;BMP_pressure;BME280_temperature;BME280_humidity;BME280_pressure;Samples;Min_cycle;Max_cycle;Signal;HPM_P1;HPM_P2
2023/08/02 00:00:52;;;;;;;5.53;2.43;;;16.30;59.00;;;;;;5009355;28;21032;-53
2023/08/02 00:03:19;;;;;;;3.10;2.40;;;16.20;56.40;;;;;;5007919;28;21021;-54
2023/08/02 00:05:52;;;;;;;4.00;3.13;;;16.20;57.30;;;;;;5007618;28;20965;-53
2023/08/02 00:08:19;;;;;;;7.10;3.40;;;16.20;56.20;;;;;;5010007;28;20984;-52
2023/08/02 00:10:46;;;;;;;4.70;3.77;;;16.20;54.70;;;;;;5005523;28;20519;-54
2023/08/02 00:13:13;;;;;;;8.20;3.93;;;16.20;56.50;;;;;;5007957;28;20491;-55
2023/08/02 00:15:40;;;;;;;7.30;3.63;;;16.20;56.10;;;;;;5006319;28;20467;-55
2023/08/02 00:18:06;;;;;;;8.93;4.67;;;16.20;56.40;;;;;;5008222;28;20526;-55
2023/08/02 00:20:33;;;;;;;11.63;4.30;;;16.20;55.50;;;;;;5012579;28;21056;-53
2023/08/02 00:23:00;;;;;;;10.60;4.40;;;16.20;55.30;;;;;;5007574;28;21017;-55
2023/08/02 00:25:26;;;;;;;4.60;2.70;;;16.20;57.50;;;;;;5009504;28;20498;-54
2023/08/02 00:27:54;;;;;;;11.43;4.50;;;16.20;54.30;;;;;;5011351;28;20503;-55
2023/08/02 00:30:21;;;;;;;8.30;4.03;;;16.20;55.50;;;;;;5012613;28;20511;-54
2023/08/02 00:32:48;;;;;;;8.70;3.43;;;16.20;56.10;;;;;;5004445;28;20541;-53
2023/08/02 00:35:15;;;;;;;8.70;3.50;;;16.20;59.80;;;;;;5002300;28;20550;-56
2023/08/02 00:37:43;;;;;;;6.83;3.33;;;16.20;60.50;;;;;;5011058;28;20860;-55
2023/08/02 00:40:10;;;;;;;9.40;3.60;;;16.20;60.60;;;;;;5007736;28;20488;-53
2023/08/02 00:42:37;;;;;;;11.10;4.30;;;16.20;60.50;;;;;;4992573;28;20958;-54
2023/08/02 00:45:06;;;;;;;8.40;3.50;;;16.20;60.60;;;;;;5003347;28;20494;-53
2023/08/02 00:47:33;;;;;;;7.00;4.50;;;16.20;65.50;;;;;;5009249;28;20472;-53
2023/08/02 00:50:00;;;;;;;9.23;5.30;;;16.20;60.60;;;;;;5005618;28;20500;-54
2023/08/02 00:52:27;;;;;;;11.17;4.40;;;16.20;62.50;;;;;;4999636;28;21001;-54
2023/08/02 00:54:54;;;;;;;9.93;4.43;;;16.20;59.80;;;;;;4994636;28;20912;-54
2023/08/02 00:57:20;;;;;;;8.50;2.90;;;16.20;61.20;;;;;;4998160;28;20550;-53
2023/08/02 00:59:47;;;;;;;22.50;3.53;;;16.20;68.70;;;;;;5006636;28;20679;-55
2023/08/02 01:02:15;;;;;;;5.83;3.40;;;16.20;70.50;;;;;;5007649;28;20530;-54
2023/08/02 01:04:42;;;;;;;4.70;3.20;;;16.20;67.90;;;;;;5005645;28;20525;-54
2023/08/02 01:07:14;;;;;;;7.57;3.63;;;16.20;71.80;;;;;;5005718;28;20500;-54
2023/08/02 01:09:44;;;;;;;8.10;3.83;;;16.20;71.60;;;;;;5010908;28;20795;-53
2023/08/02 01:12:11;;;;;;;9.53;3.90;;;16.20;70.10;;;;;;5001404;28;20563;-55
2023/08/02 01:14:42;;;;;;;7.63;3.60;;;16.20;68.50;;;;;;5002041;28;20487;-54
2023/08/02 01:17:10;;;;;;;11.30;3.20;;;16.10;67.40;;;;;;5005038;28;21001;-55
2023/08/02 01:19:38;;;;;;;7.70;3.80;;;16.20;69.50;;;;;;5007568;28;20562;-53
2023/08/02 01:22:06;;;;;;;8.10;3.50;;;16.20;73.40;;;;;;5005976;28;20562;-54
2023/08/02 01:24:34;;;;;;;10.17;3.50;;;16.20;72.10;;;;;;5006617;28;20491;-53
2023/08/02 01:27:04;;;;;;;11.33;4.83;;;16.20;71.60;;;;;;5007712;28;20546;-53
2023/08/02 01:29:31;;;;;;;10.03;3.90;;;16.10;70.00;;;;;;5005720;28;20514;-55
2023/08/02 01:31:58;;;;;;;6.87;3.87;;;16.20;74.30;;;;;;5008692;28;20515;-53
2023/08/02 01:34:25;;;;;;;12.23;4.70;;;16.10;73.40;;;;;;5004117;28;20917;-55
2023/08/02 01:36:52;;;;;;;6.97;3.80;;;16.10;73.50;;;;;;5007121;28;20502;-54
2023/08/02 01:39:20;;;;;;;10.57;3.90;;;16.10;76.60;;;;;;5015479;28;20525;-53
2023/08/02 01:41:46;;;;;;;9.90;3.83;;;16.10;73.50;;;;;;5020644;28;20574;-53
2023/08/02 01:44:13;;;;;;;18.93;3.67;;;16.10;72.60;;;;;;5007256;28;20992;-54
2023/08/02 01:46:39;;;;;;;6.77;3.50;;;16.10;78.20;;;;;;5011839;28;20464;-54
2023/08/02 01:49:06;;;;;;;6.20;2.97;;;16.10;76.00;;;;;;5004925;28;20909;-54
2023/08/02 01:51:32;;;;;;;8.13;3.13;;;16.10;76.30;;;;;;5006684;28;20523;-53
2023/08/02 01:53:59;;;;;;;5.10;2.80;;;16.10;76.00;;;;;;5012481;28;20505;-54
2023/08/02 01:56:27;;;;;;;4.57;2.40;;;16.10;77.70;;;;;;5008021;28;20896;-52
2023/08/02 01:58:53;;;;;;;7.43;3.27;;;16.10;81.40;;;;;;5010308;28;21094;-55
2023/08/02 02:01:20;;;;;;;9.13;2.67;;;16.00;79.60;;;;;;5015044;28;20579;-53
2023/08/02 02:03:46;;;;;;;11.60;3.40;;;16.10;79.20;;;;;;5006328;28;20593;-53
2023/08/02 02:06:13;;;;;;;4.47;2.53;;;16.10;79.30;;;;;;5009312;28;20529;-53
2023/08/02 02:08:39;;;;;;;5.70;2.60;;;16.10;83.70;;;;;;5011213;28;20878;-53
2023/08/02 02:11:06;;;;;;;4.50;2.67;;;16.10;83.10;;;;;;5017074;28;20561;-53
2023/08/02 02:13:33;;;;;;;6.70;2.37;;;16.20;85.50;;;;;;5009220;28;20467;-54
2023/08/02 02:16:00;;;;;;;7.30;3.20;;;16.20;83.50;;;;;;5011248;28;20550;-54
2023/08/02 02:18:27;;;;;;;6.60;3.30;;;16.20;83.50;;;;;;5007744;28;20578;-54
2023/08/02 02:20:53;;;;;;;11.07;3.97;;;16.10;81.40;;;;;;5013725;28;20484;-54
2023/08/02 02:23:20;;;;;;;4.60;2.70;;;16.10;81.90;;;;;;5013162;28;20503;-54
2023/08/02 02:25:46;;;;;;;5.83;3.60;;;16.10;80.00;;;;;;5009395;28;21027;-55
2023/08/02 02:28:13;;;;;;;8.13;2.93;;;16.10;78.30;;;;;;5008334;28;20554;-55
2023/08/02 02:30:42;;;;;;;10.57;4.00;;;16.10;79.50;;;;;;5006282;28;20614;-54
2023/08/02 02:33:08;;;;;;;5.83;3.83;;;16.10;81.90;;;;;;5008119;28;20495;-52
2023/08/02 02:35:35;;;;;;;9.93;3.63;;;16.00;81.50;;;;;;5012837;28;20483;-54
2023/08/02 02:38:01;;;;;;;8.70;4.53;;;16.10;82.50;;;;;;5012523;28;20559;-54
2023/08/02 02:40:28;;;;;;;6.07;4.00;;;16.10;82.60;;;;;;5008006;28;21099;-54
2023/08/02 02:42:55;;;;;;;13.10;4.40;;;16.10;82.30;;;;;;5007559;28;20551;-54
2023/08/02 02:45:21;;;;;;;8.07;3.70;;;16.00;79.60;;;;;;5007375;28;20962;-53
2023/08/02 02:47:49;;;;;;;6.30;3.20;;;16.10;80.70;;;;;;5007488;28;20564;-54
2023/08/02 02:50:15;;;;;;;9.20;3.87;;;16.00;81.10;;;;;;5009512;28;20463;-52
2023/08/02 02:52:42;;;;;;;9.53;2.83;;;16.10;81.00;;;;;;5003088;28;20498;-54
2023/08/02 02:55:09;;;;;;;8.73;2.83;;;16.00;80.20;;;;;;5002967;28;20970;-55
2023/08/02 02:57:36;;;;;;;5.43;2.60;;;16.00;77.90;;;;;;5010100;28;20515;-53
2023/08/02 03:00:05;;;;;;;10.40;2.97;;;16.00;79.40;;;;;;4997507;28;20840;-54
2023/08/02 03:02:31;;;;;;;6.60;3.10;;;16.00;80.50;;;;;;5005468;28;20460;-53
2023/08/02 03:04:59;;;;;;;8.73;3.13;;;15.90;79.40;;;;;;5007412;28;20542;-53
2023/08/02 03:07:26;;;;;;;9.70;3.50;;;15.90;78.40;;;;;;5009365;28;20570;-54
2023/08/02 03:09:52;;;;;;;5.77;3.20;;;15.90;77.00;;;;;;5008766;28;21148;-54
2023/08/02 03:12:19;;;;;;;9.20;3.60;;;15.80;76.30;;;;;;5006952;28;21303;-53
2023/08/02 03:14:46;;;;;;;7.93;3.00;;;15.80;73.00;;;;;;5007661;28;20946;-54
2023/08/02 03:17:13;;;;;;;6.47;3.27;;;15.80;70.20;;;;;;5008382;28;21017;-53
2023/08/02 03:19:39;;;;;;;8.47;3.10;;;15.70;69.00;;;;;;5005601;28;20593;-55
2023/08/02 03:22:07;;;;;;;11.07;2.90;;;15.70;66.60;;;;;;5007470;28;20563;-54
2023/08/02 03:24:34;;;;;;;5.07;2.60;;;15.70;67.80;;;;;;5003772;28;21025;-54
2023/08/02 03:27:01;;;;;;;10.47;3.07;;;15.60;66.70;;;;;;5004504;28;20995;-54
2023/08/02 03:29:27;;;;;;;6.87;2.80;;;15.60;65.40;;;;;;5008430;28;20487;-54
2023/08/02 03:31:54;;;;;;;7.73;3.30;;;15.60;65.30;;;;;;5005193;28;20522;-53
2023/08/02 03:34:20;;;;;;;7.97;2.67;;;15.60;64.40;;;;;;5006500;28;20555;-53
2023/08/02 03:36:47;;;;;;;9.50;3.17;;;15.60;64.50;;;;;;5008154;28;21393;-54
2023/08/02 03:39:15;;;;;;;9.23;3.80;;;15.60;64.00;;;;;;5010896;28;20502;-53
2023/08/02 03:41:41;;;;;;;9.97;3.20;;;15.60;64.10;;;;;;5009738;28;20563;-53
2023/08/02 03:44:08;;;;;;;10.17;3.50;;;15.60;65.00;;;;;;5001646;28;20499;-53
2023/08/02 03:46:34;;;;;;;8.83;3.07;;;15.60;63.80;;;;;;5012954;28;20988;-54
2023/08/02 03:49:01;;;;;;;4.90;3.00;;;15.60;61.40;;;;;;5009412;28;20495;-54
2023/08/02 03:51:27;;;;;;;11.70;3.10;;;15.60;65.00;;;;;;5007931;28;20574;-54
2023/08/02 03:53:54;;;;;;;11.63;2.83;;;15.60;64.50;;;;;;4998852;28;20523;-54
2023/08/02 03:56:21;;;;;;;7.47;3.10;;;15.70;64.30;;;;;;5007836;28;20500;-52
2023/08/02 03:58:48;;;;;;;7.73;3.90;;;15.70;64.90;;;;;;5005443;28;20488;-54
2023/08/02 04:01:15;;;;;;;7.10;3.87;;;15.70;66.80;;;;;;5005297;28;20484;-54
2023/08/02 04:03:41;;;;;;;8.53;3.27;;;15.70;66.70;;;;;;5004779;28;20491;-54
2023/08/02 04:06:08;;;;;;;6.30;3.40;;;15.70;63.90;;;;;;5009544;28;20881;-54
2023/08/02 04:08:34;;;;;;;3.77;2.07;;;15.70;64.80;;;;;;5009777;28;20555;-54
2023/08/02 04:11:03;;;;;;;9.63;2.60;;;15.70;64.00;;;;;;5008391;28;20596;-54
2023/08/02 04:13:31;;;;;;;4.57;2.43;;;15.70;65.00;;;;;;5000133;28;20464;-54
2023/08/02 04:15:58;;;;;;;3.73;2.20;;;15.70;62.60;;;;;;5008674;28;20491;-54
2023/08/02 04:18:25;;;;;;;6.37;2.40;;;15.70;61.80;;;;;;5009466;28;20552;-55
2023/08/02 04:20:51;;;;;;;7.63;2.20;;;15.70;60.00;;;;;;5005282;28;20516;-55
2023/08/02 04:23:18;;;;;;;7.03;2.60;;;15.70;60.10;;;;;;5004978;28;20546;-54
2023/08/02 04:25:44;;;;;;;5.63;2.50;;;15.70;59.50;;;;;;5006055;28;20904;-54
2023/08/02 04:28:11;;;;;;;5.90;2.50;;;15.70;58.70;;;;;;5004091;28;20556;-55
2023/08/02 04:30:38;;;;;;;2.83;1.87;;;15.70;57.40;;;;;;5007904;28;20504;-52
2023/08/02 04:33:06;;;;;;;14.50;3.00;;;15.80;56.50;;;;;;5005979;28;20490;-55
2023/08/02 04:35:32;;;;;;;6.00;3.40;;;15.70;58.20;;;;;;5006877;28;20564;-56
2023/08/02 04:37:59;;;;;;;4.13;2.13;;;15.80;57.60;;;;;;5007385;28;20966;-54
2023/08/02 04:40:25;;;;;;;3.40;1.70;;;15.80;57.30;;;;;;5007179;28;20574;-54
2023/08/02 04:42:53;;;;;;;5.53;2.33;;;15.80;56.00;;;;;;5008512;28;21032;-54
2023/08/02 04:45:20;;;;;;;5.80;2.47;;;15.80;59.00;;;;;;5009801;28;20459;-54
2023/08/02 04:47:48;;;;;;;3.40;2.50;;;15.90;58.40;;;;;;5007762;28;20492;-55
2023/08/02 04:50:14;;;;;;;4.60;2.80;;;15.90;59.80;;;;;;5007024;28;20490;-54
2023/08/02 04:52:41;;;;;;;7.10;2.40;;;15.90;61.30;;;;;;5010918;28;20495;-55
2023/08/02 04:55:08;;;;;;;4.27;2.53;;;15.90;60.30;;;;;;5007510;28;20472;-54
2023/08/02 04:57:35;;;;;;;2.50;2.27;;;15.90;62.20;;;;;;5003025;28;20514;-53
2023/08/02 05:00:01;;;;;;;7.30;3.27;;;15.90;61.90;;;;;;5006036;28;20519;-54
2023/08/02 05:02:33;;;;;;;6.37;2.60;;;16.00;62.10;;;;;;5005941;28;20463;-54
2023/08/02 05:05:01;;;;;;;7.90;2.20;;;16.00;56.50;;;;;;5008837;28;21202;-54
2023/08/02 05:07:28;;;;;;;4.73;2.53;;;16.00;62.70;;;;;;5010126;28;20460;-54
2023/08/02 05:09:55;;;;;;;5.40;3.17;;;16.00;61.80;;;;;;5007943;28;20506;-55
2023/08/02 05:12:21;;;;;;;9.40;3.33;;;16.10;60.90;;;;;;5004392;28;20508;-54
2023/08/02 05:14:48;;;;;;;5.80;3.10;;;16.10;64.10;;;;;;5005295;28;20496;-54
2023/08/02 05:17:14;;;;;;;8.87;2.37;;;16.10;62.00;;;;;;5006287;28;20491;-55
2023/08/02 05:19:41;;;;;;;6.83;2.60;;;16.10;61.80;;;;;;5005796;28;20534;-55
2023/08/02 05:22:08;;;;;;;7.20;2.60;;;16.20;60.30;;;;;;5005422;28;20567;-55
2023/08/02 05:24:35;;;;;;;5.30;2.57;;;16.10;60.90;;;;;;5005058;28;20918;-53
2023/08/02 05:27:01;;;;;;;5.73;2.53;;;16.20;66.60;;;;;;5010931;28;20550;-54
2023/08/02 05:29:28;;;;;;;5.17;2.60;;;16.20;67.20;;;;;;5008265;28;20566;-54
2023/08/02 05:31:54;;;;;;;2.30;2.10;;;16.20;70.90;;;;;;5011878;28;20518;-53
2023/08/02 05:34:21;;;;;;;5.00;2.80;;;16.30;67.00;;;;;;5012483;28;20598;-53
2023/08/02 05:36:47;;;;;;;4.83;2.30;;;16.30;71.50;;;;;;5006167;28;20491;-54
2023/08/02 05:39:15;;;;;;;6.97;2.50;;;16.30;64.90;;;;;;5011772;28;20550;-53
2023/08/02 05:41:42;;;;;;;9.87;3.93;;;16.30;67.30;;;;;;5007750;28;20455;-56
2023/08/02 05:44:08;;;;;;;6.57;3.63;;;16.30;63.70;;;;;;5010278;28;20546;-55
2023/08/02 05:46:35;;;;;;;4.77;2.83;;;16.40;65.20;;;;;;5012606;28;20550;-54
2023/08/02 05:49:01;;;;;;;4.43;2.90;;;16.40;69.70;;;;;;5007445;28;20538;-53
2023/08/02 05:51:28;;;;;;;4.80;2.53;;;16.50;66.00;;;;;;5007122;28;21110;-54
2023/08/02 05:53:54;;;;;;;8.00;3.50;;;16.50;69.60;;;;;;5007588;28;20495;-54
2023/08/02 05:56:22;;;;;;;9.80;3.97;;;16.50;72.60;;;;;;5005513;28;20521;-55
2023/08/02 05:58:49;;;;;;;4.87;2.83;;;16.50;71.10;;;;;;5010662;28;20899;-54
2023/08/02 06:01:15;;;;;;;9.33;2.77;;;16.50;74.60;;;;;;5009771;28;20570;-53
2023/08/02 06:03:42;;;;;;;7.27;3.10;;;16.50;77.50;;;;;;5006095;28;20518;-55
2023/08/02 06:06:08;;;;;;;8.87;2.60;;;16.50;71.40;;;;;;5007760;28;20883;-55
2023/08/02 06:08:35;;;;;;;5.50;3.60;;;16.60;71.70;;;;;;5011196;28;20494;-53
2023/08/02 06:11:01;;;;;;;9.03;2.60;;;16.60;67.80;;;;;;5012056;28;20521;-55
2023/08/02 06:13:30;;;;;;;2.87;2.30;;;16.60;77.80;;;;;;5008036;28;20458;-55
2023/08/02 06:15:57;;;;;;;8.00;3.17;;;16.60;77.30;;;;;;5008463;28;20491;-53
2023/08/02 06:18:23;;;;;;;5.83;2.50;;;16.70;75.50;;;;;;5006095;28;20499;-55
2023/08/02 06:20:50;;;;;;;11.63;2.57;;;16.80;75.40;;;;;;5010375;28;20574;-55
2023/08/02 06:23:16;;;;;;;5.13;3.20;;;17.00;79.90;;;;;;5012345;28;20559;-54
2023/08/02 06:25:43;;;;;;;8.60;2.57;;;17.00;90.90;;;;;;5010090;28;20841;-54
2023/08/02 06:28:09;;;;;;;8.20;2.80;;;17.00;87.80;;;;;;5006508;28;20500;-54
2023/08/02 06:30:37;;;;;;;20.80;4.07;;;17.10;89.50;;;;;;5007632;28;20602;-52
2023/08/02 06:33:04;;;;;;;5.17;2.60;;;17.10;91.60;;;;;;5009124;28;20459;-53
2023/08/02 06:35:30;;;;;;;5.30;2.50;;;17.10;89.60;;;;;;5003131;28;20505;-51
2023/08/02 06:37:57;;;;;;;6.80;2.50;;;17.20;85.60;;;;;;5008323;28;21013;-51
2023/08/02 06:40:23;;;;;;;7.03;3.30;;;17.10;88.30;;;;;;5003668;28;20522;-52
2023/08/02 06:42:50;;;;;;;6.33;2.50;;;17.10;88.90;;;;;;5004225;28;20602;-52
2023/08/02 06:45:16;;;;;;;5.83;2.17;;;17.10;90.30;;;;;;4997273;28;20486;-53
2023/08/02 06:47:44;;;;;;;3.77;2.53;;;17.00;99.90;;;;;;5006341;28;20538;-51
2023/08/02 06:50:11;;;;;;;6.03;3.87;;;17.10;93.40;;;;;;5002917;28;20467;-52
2023/08/02 06:52:38;;;;;;;9.10;2.60;;;17.10;97.20;;;;;;5009908;28;20463;-51
2023/08/02 06:55:05;;;;;;;3.80;2.60;;;17.10;99.90;;;;;;5003980;28;20527;-52
2023/08/02 06:57:32;;;;;;;8.13;2.47;;;17.10;99.90;;;;;;5000552;28;20897;-51
2023/08/02 06:59:58;;;;;;;5.73;2.43;;;17.20;97.20;;;;;;5008275;28;21059;-51
2023/08/02 07:02:25;;;;;;;3.50;2.20;;;17.30;99.90;;;;;;5007353;28;20899;-51
2023/08/02 07:04:53;;;;;;;4.77;2.13;;;17.40;99.90;;;;;;5001382;28;20548;-53
2023/08/02 07:07:19;;;;;;;12.50;2.77;;;17.40;99.90;;;;;;5008806;28;20546;-52
2023/08/02 07:09:48;;;;;;;3.27;2.30;;;17.50;99.90;;;;;;5003865;28;20932;-51
2023/08/02 07:12:15;;;;;;;5.87;2.40;;;17.60;99.90;;;;;;5007798;28;20899;-51
2023/08/02 07:14:41;;;;;;;7.10;2.40;;;17.70;99.90;;;;;;5003509;28;20547;-52
2023/08/02 07:17:08;;;;;;;8.60;2.67;;;17.80;99.90;;;;;;5006762;28;20492;-52
2023/08/02 07:19:34;;;;;;;6.87;2.53;;;17.90;99.90;;;;;;5010213;28;20498;-51
2023/08/02 07:22:02;;;;;;;5.33;2.20;;;17.90;99.90;;;;;;5010211;28;20487;-51
2023/08/02 07:24:29;;;;;;;7.63;3.00;;;18.00;99.90;;;;;;5004509;28;21080;-51
2023/08/02 07:26:56;;;;;;;17.40;2.33;;;18.10;99.90;;;;;;5001976;28;20559;-51
2023/08/02 07:29:22;;;;;;;4.97;2.77;;;18.10;99.90;;;;;;5005977;28;20495;-51
2023/08/02 07:31:49;;;;;;;3.87;2.40;;;18.10;99.90;;;;;;5008052;28;20974;-51
2023/08/02 07:34:15;;;;;;;7.80;2.33;;;18.10;99.90;;;;;;5001944;28;20556;-51
2023/08/02 07:36:42;;;;;;;4.57;2.07;;;18.20;99.90;;;;;;5001408;28;20455;-51
2023/08/02 07:39:10;;;;;;;6.10;2.20;;;18.30;99.90;;;;;;5006547;28;20491;-52
2023/08/02 07:41:36;;;;;;;5.43;2.67;;;18.40;99.90;;;;;;5006108;28;20546;-51
2023/08/02 07:44:03;;;;;;;7.90;2.57;;;18.40;99.90;;;;;;5006463;28;20554;-52
2023/08/02 07:46:29;;;;;;;8.07;2.53;;;18.50;99.90;;;;;;5003027;28;20506;-52
2023/08/02 07:48:56;;;;;;;9.77;2.60;;;18.50;99.90;;;;;;5003871;28;20559;-52
2023/08/02 07:51:22;;;;;;;5.53;2.10;;;18.50;99.90;;;;;;5008816;28;20488;-51
2023/08/02 07:53:50;;;;;;;13.07;2.60;;;18.60;99.90;;;;;;5003055;28;20526;-51
2023/08/02 07:56:17;;;;;;;4.90;1.97;;;18.60;99.90;;;;;;5009700;28;20492;-52
2023/08/02 07:58:44;;;;;;;5.67;2.67;;;18.60;99.90;;;;;;5011637;28;20452;-51
2023/08/02 08:01:11;;;;;;;9.67;2.47;;;18.60;99.90;;;;;;5003674;28;20578;-51
2023/08/02 08:03:38;;;;;;;5.07;2.13;;;18.70;99.90;;;;;;5009434;28;20554;-52
2023/08/02 08:06:12;;;;;;;5.87;2.40;;;18.70;99.90;;;;;;5005627;28;20552;-51
2023/08/02 08:08:39;;;;;;;2.90;2.03;;;18.80;99.90;;;;;;5009847;28;20972;-52
2023/08/02 08:11:05;;;;;;;10.00;3.13;;;18.80;99.90;;;;;;5010510;28;20480;-52
2023/08/02 08:13:33;;;;;;;5.13;2.27;;;18.90;99.90;;;;;;5003229;28;21021;-52
2023/08/02 08:16:01;;;;;;;6.83;2.43;;;19.00;99.90;;;;;;5008063;28;20551;-52
2023/08/02 08:18:30;;;;;;;4.00;1.83;;;19.20;99.90;;;;;;5007155;28;20468;-52
2023/08/02 08:20:57;;;;;;;5.13;1.80;;;19.20;99.90;;;;;;4999415;28;20492;-53
2023/08/02 08:23:23;;;;;;;5.40;2.60;;;19.40;99.90;;;;;;5001476;28;20962;-51
2023/08/02 08:25:50;;;;;;;3.73;2.00;;;19.40;99.90;;;;;;5003848;28;20496;-51
2023/08/02 08:28:17;;;;;;;4.00;2.30;;;19.40;99.90;;;;;;5010160;28;20598;-51
2023/08/02 08:30:44;;;;;;;5.43;1.73;;;19.40;99.90;;;;;;5008686;28;20926;-52
2023/08/02 08:33:11;;;;;;;13.63;1.83;;;19.50;99.90;;;;;;5009841;28;20495;-51
2023/08/02 08:35:37;;;;;;;6.37;1.47;;;19.40;99.90;;;;;;5008153;28;20570;-50
2023/08/02 08:38:04;;;;;;;2.60;1.97;;;19.40;99.90;;;;;;5007388;28;20538;-52
2023/08/02 08:40:32;;;;;;;3.90;1.90;;;19.50;99.90;;;;;;5005516;28;21612;-51
2023/08/02 08:43:00;;;;;;;5.23;1.63;;;19.60;99.90;;;;;;5005512;28;20455;-52
2023/08/02 08:45:27;;;;;;;6.40;1.97;;;19.70;99.90;;;;;;5004581;28;20468;-52
2023/08/02 08:47:54;;;;;;;4.77;2.37;;;19.80;21.80;;;;;;5005670;28;20591;-52
2023/08/02 08:53:00;;;;;;;6.27;1.80;;;19.90;28.30;;;;;;5027786;28;20471;-50
2023/08/02 08:55:28;;;;;;;4.93;1.73;;;20.00;32.90;;;;;;5019145;28;20540;-51
2023/08/02 08:57:55;;;;;;;3.07;1.67;;;20.20;33.50;;;;;;5024296;28;20486;-51
2023/08/02 09:00:22;;;;;;;34.00;3.03;;;20.20;29.00;;;;;;5040937;28;20486;-50
2023/08/02 09:02:49;;;;;;;2.90;1.47;;;20.30;79.80;;;;;;5017200;28;20466;-53
2023/08/02 09:05:17;;;;;;;6.50;1.80;;;20.30;38.00;;;;;;5015771;28;20482;-53
2023/08/02 09:07:44;;;;;;;2.77;1.73;;;20.40;53.80;;;;;;5011287;28;20543;-53
2023/08/02 09:10:11;;;;;;;4.10;2.00;;;20.40;55.40;;;;;;5009727;28;20563;-54
2023/08/02 09:12:45;;;;;;;2.73;1.70;;;20.60;52.10;;;;;;5016480;28;20570;-54
2023/08/02 09:15:14;;;;;;;4.03;1.70;;;20.80;36.20;;;;;;5011813;28;20465;-52
2023/08/02 09:17:48;;;;;;;3.67;1.73;;;20.90;65.40;;;;;;5021715;28;20512;-51
2023/08/02 09:20:17;;;;;;;4.70;1.60;;;20.80;70.80;;;;;;5008098;28;21516;-51
2023/08/02 09:22:44;;;;;;;3.77;1.60;;;21.00;68.40;;;;;;5013410;28;20917;-50
2023/08/02 09:25:21;;;;;;;3.63;1.77;;;21.00;99.90;;;;;;5010036;28;20495;-51
2023/08/02 09:27:48;;;;;;;7.97;1.67;;;20.90;84.20;;;;;;5007156;28;20517;-50
2023/08/02 09:30:24;;;;;;;5.63;2.27;;;21.20;89.80;;;;;;5012658;28;20547;-50
2023/08/02 09:32:59;;;;;;;1.33;1.00;;;21.10;93.60;;;;;;5006216;28;20960;-51
2023/08/02 09:35:28;;;;;;;6.53;1.53;;;21.10;99.90;;;;;;5001048;28;20529;-51
2023/08/02 09:37:54;;;;;;;2.40;1.90;;;21.20;99.90;;;;;;5009338;28;20965;-49
2023/08/02 09:40:33;;;;;;;6.00;1.80;;;21.30;99.90;;;;;;5008151;28;20474;-50
2023/08/02 09:43:01;;;;;;;5.37;1.40;;;21.50;99.90;;;;;;5003816;28;20498;-51
2023/08/02 09:45:33;;;;;;;7.90;1.53;;;21.70;99.90;;;;;;5007776;28;20570;-52
2023/08/02 09:47:59;;;;;;;3.70;1.57;;;21.50;99.90;;;;;;5006255;28;20809;-50
2023/08/02 09:50:27;;;;;;;5.40;2.43;;;21.70;99.90;;;;;;5003687;28;20549;-51
2023/08/02 09:52:55;;;;;;;4.20;1.63;;;21.70;99.90;;;;;;5008298;28;20559;-51
2023/08/02 09:55:21;;;;;;;2.90;1.67;;;22.20;99.90;;;;;;5009827;28;20466;-51
2023/08/02 09:57:49;;;;;;;4.20;1.30;;;22.00;99.90;;;;;;5015186;28;20547;-51
2023/08/02 10:00:17;;;;;;;2.93;1.60;;;21.90;99.90;;;;;;5007134;28;20563;-50
2023/08/02 10:02:46;;;;;;;3.10;1.00;;;22.20;99.90;;;;;;5007843;28;20487;-52
2023/08/02 10:05:13;;;;;;;2.03;1.10;;;22.10;99.90;;;;;;5005989;28;20456;-52
2023/08/02 10:07:45;;;;;;;5.23;1.87;;;22.00;99.90;;;;;;5021859;28;20546;-52
2023/08/02 10:10:15;;;;;;;3.13;1.30;;;21.70;99.90;;;;;;5009995;28;20467;-52
2023/08/02 10:12:42;;;;;;;7.33;1.53;;;21.50;99.90;;;;;;5009870;28;20524;-51
2023/08/02 10:15:09;;;;;;;5.73;1.60;;;21.70;99.90;;;;;;5008549;28;20487;-54
2023/08/02 10:17:37;;;;;;;3.80;1.30;;;22.40;99.90;;;;;;5013472;28;20495;-54
2023/08/02 10:20:05;;;;;;;4.93;1.63;;;22.60;99.90;;;;;;5018979;28;20546;-53
2023/08/02 10:22:32;;;;;;;3.30;1.70;;;22.80;99.90;;;;;;5015633;28;20482;-53
2023/08/02 10:25:00;;;;;;;2.67;1.33;;;22.80;99.90;;;;;;5009199;28;20461;-53
2023/08/02 10:27:27;;;;;;;1.93;1.20;;;22.80;99.90;;;;;;5007077;28;20461;-53
2023/08/02 10:29:54;;;;;;;3.80;1.77;;;22.60;99.90;;;;;;5008584;28;20973;-55
2023/08/02 10:32:21;;;;;;;3.07;1.40;;;22.80;99.90;;;;;;5010175;28;20562;-54
2023/08/02 10:34:50;;;;;;;1.53;1.43;;;23.00;99.90;;;;;;5008305;28;20471;-53
2023/08/02 10:37:18;;;;;;;5.80;1.67;;;22.60;99.90;;;;;;5019682;28;20471;-54
2023/08/02 10:39:54;;;;;;;6.53;1.63;;;22.40;99.90;;;;;;5012631;28;20460;-54
2023/08/02 10:42:24;;;;;;;5.50;1.83;;;22.00;99.90;;;;;;5011208;28;20479;-53
2023/08/02 10:45:15;;;;;;;2.77;1.13;;;21.90;99.90;;;;;;5010073;28;20463;-53
2023/08/02 10:47:42;;;;;;;2.27;1.53;;;21.70;99.90;;;;;;5014142;28;20463;-54
2023/08/02 10:50:29;;;;;;;4.63;1.33;;;22.80;99.90;;;;;;5011115;28;20464;-53
2023/08/02 10:53:07;;;;;;;2.70;1.37;;;23.10;99.90;;;;;;5008007;28;20499;-53
2023/08/02 10:55:34;;;;;;;2.23;1.40;;;24.20;99.90;;;;;;5016790;28;20529;-55
2023/08/02 10:58:05;;;;;;;4.30;1.60;;;24.20;99.90;;;;;;5011332;28;20586;-53
2023/08/02 11:00:33;;;;;;;5.00;1.90;;;24.80;99.90;;;;;;5003774;28;20550;-54
2023/08/02 11:03:00;;;;;;;5.80;1.57;;;24.60;99.90;;;;;;5007161;28;20487;-54
2023/08/02 11:05:40;;;;;;;1.97;1.50;;;24.50;99.90;;;;;;5008506;28;20864;-53
2023/08/02 11:08:08;;;;;;;2.10;1.13;;;24.10;99.90;;;;;;5013092;28;20491;-53
2023/08/02 11:10:47;;;;;;;3.57;1.20;;;23.70;1.40;;;;;;5015539;28;20549;-54
2023/08/02 11:13:14;;;;;;;8.10;1.70;;;23.10;99.90;;;;;;5014263;28;20474;-53
2023/08/02 11:15:41;;;;;;;2.23;1.40;;;22.60;99.90;;;;;;5011437;28;20455;-54
2023/08/02 11:18:08;;;;;;;1.33;1.20;;;22.40;99.90;;;;;;5018465;28;20550;-54
2023/08/02 11:20:37;;;;;;;3.73;1.37;;;22.00;99.90;;;;;;5014729;28;20533;-52
2023/08/02 11:23:20;;;;;;;3.20;1.10;;;21.90;99.90;;;;;;5012212;28;20522;-54
2023/08/02 11:25:47;;;;;;;4.17;1.50;;;21.80;99.90;;;;;;5003921;28;20490;-52
2023/08/02 11:28:15;;;;;;;2.40;1.40;;;21.70;99.90;;;;;;5017197;28;20466;-53
2023/08/02 11:30:42;;;;;;;2.13;1.37;;;21.60;96.90;;;;;;5015858;28;20472;-53
2023/08/02 11:33:08;;;;;;;2.80;1.70;;;21.50;87.80;;;;;;5006648;28;20555;-54
2023/08/02 11:35:35;;;;;;;1.77;1.23;;;21.50;89.70;;;;;;5005868;28;20464;-53
2023/08/02 11:38:03;;;;;;;2.73;1.17;;;21.50;88.80;;;;;;5004513;28;20558;-53
2023/08/02 11:40:36;;;;;;;2.20;1.40;;;21.40;89.60;;;;;;4999474;28;20471;-54
2023/08/02 11:43:03;;;;;;;2.40;1.63;;;21.30;83.70;;;;;;5005436;28;20478;-53
2023/08/02 11:45:32;;;;;;;2.07;1.67;;;21.30;79.50;;;;;;5002704;28;20859;-54
2023/08/02 11:47:59;;;;;;;4.07;1.70;;;21.30;83.60;;;;;;5003931;28;20543;-53
2023/08/02 11:50:26;;;;;;;2.90;1.70;;;21.30;74.70;;;;;;5006573;28;21040;-53
2023/08/02 11:52:53;;;;;;;2.50;1.40;;;21.30;76.70;;;;;;5005710;28;20981;-52
2023/08/02 11:55:21;;;;;;;2.20;1.73;;;21.30;75.50;;;;;;5004848;28;20636;-53
2023/08/02 11:57:48;;;;;;;1.57;1.40;;;21.30;70.30;;;;;;5011555;28;20554;-53
2023/08/02 12:00:15;;;;;;;7.23;1.73;;;21.30;68.90;;;;;;5011423;28;20472;-53
2023/08/02 12:02:43;;;;;;;2.40;1.60;;;21.20;61.10;;;;;;5012691;28;21123;-53
2023/08/02 12:05:19;;;;;;;3.57;2.13;;;21.30;62.20;;;;;;5005021;28;20492;-52
2023/08/02 12:07:46;;;;;;;5.90;2.07;;;21.30;67.80;;;;;;5013335;28;20505;-53
2023/08/02 12:10:27;;;;;;;3.10;2.00;;;21.40;64.30;;;;;;5015844;28;20448;-53
2023/08/02 12:12:53;;;;;;;4.60;2.80;;;21.50;68.80;;;;;;5005240;28;20498;-53
2023/08/02 12:15:20;;;;;;;1.90;1.50;;;21.80;73.00;;;;;;5011421;28;20488;-54
2023/08/02 12:18:01;;;;;;;5.07;2.17;;;21.90;73.80;;;;;;5012839;28;20459;-54
2023/08/02 12:20:32;;;;;;;3.10;2.00;;;22.00;72.50;;;;;;5010736;28;20467;-53
2023/08/02 12:22:59;;;;;;;3.87;2.00;;;22.10;71.60;;;;;;5017910;28;20527;-54
2023/08/02 12:25:25;;;;;;;3.53;2.50;;;22.10;66.10;;;;;;5020659;28;20478;-53
2023/08/02 12:28:08;;;;;;;5.60;2.30;;;22.20;81.50;;;;;;5007023;28;20903;-54
2023/08/02 12:30:35;;;;;;;3.13;2.10;;;22.20;95.00;;;;;;5009198;28;20459;-53
2023/08/02 12:33:03;;;;;;;1.77;1.67;;;22.10;90.70;;;;;;5007779;28;20486;-53
2023/08/02 12:35:29;;;;;;;3.00;2.17;;;21.90;93.70;;;;;;5008121;28;20456;-53
2023/08/02 12:37:56;;;;;;;4.20;2.50;;;22.00;88.50;;;;;;5027089;28;20483;-54
2023/08/02 12:40:22;;;;;;;3.73;2.07;;;22.00;90.60;;;;;;5012140;28;20521;-53
2023/08/02 12:42:49;;;;;;;6.63;2.13;;;21.90;99.90;;;;;;5010977;28;20491;-54
2023/08/02 12:45:15;;;;;;;12.73;2.40;;;21.90;96.30;;;;;;5004651;28;20550;-55
2023/08/02 12:47:42;;;;;;;3.17;2.10;;;21.90;99.90;;;;;;5011654;28;20479;-54
2023/08/02 12:50:10;;;;;;;2.20;1.80;;;21.90;98.10;;;;;;5008554;28;21004;-54